sensor_id;sensor_type;location;lat;lon;timestamp;temperature;humidity
41668;DHT22;27356;50.920;5.350;2023-04-06T00:01:38;3.70;99.90
41668;DHT22;27356;50.920;5.350;2023-04-06T00:04:03;3.70;99.90
41668;DHT22;27356;50.920;5.350;2023-04-06T00:06:29;3.70;99.90
41668;DHT22;27356;50.920;5.350;2023-04-06T00:08:55;3.60;99.90
41668;DHT22;27356;50.920;5.350;2023-04-06T00:11:22;3.50;99.90
41668;DHT22;27356;50.920;5.350;2023-04-06T00:13:48;3.40;99.90
41668;DHT22;27356;50.920;5.350;2023-04-06T00:16:13;3.50;99.90
41668;DHT22;27356;50.920;5.350;2023-04-06T00:18:40;3.40;99.90
41668;DHT22;27356;50.920;5.350;2023-04-06T00:21:05;3.40;99.90
41668;DHT22;27356;50.920;5.350;2023-04-06T00:23:31;3.30;99.90
41668;DHT22;27356;50.920;5.350;2023-04-06T00:25:57;3.20;99.90
41668;DHT22;27356;50.920;5.350;2023-04-06T00:28:23;3.30;99.90
41668;DHT22;27356;50.920;5.350;2023-04-06T00:30:52;3.30;99.90
41668;DHT22;27356;50.920;5.350;2023-04-06T00:33:19;3.20;99.90
41668;DHT22;27356;50.920;5.350;2023-04-06T00:35:45;3.20;99.90
41668;DHT22;27356;50.920;5.350;2023-04-06T00:38:11;3.10;99.90
41668;DHT22;27356;50.920;5.350;2023-04-06T00:40:37;3.00;99.90
41668;DHT22;27356;50.920;5.350;2023-04-06T00:43:05;3.00;99.90
41668;DHT22;27356;50.920;5.350;2023-04-06T00:45:31;3.00;99.90
41668;DHT22;27356;50.920;5.350;2023-04-06T00:47:57;3.00;99.90
41668;DHT22;27356;50.920;5.350;2023-04-06T00:50:23;3.00;99.90
41668;DHT22;27356;50.920;5.350;2023-04-06T00:52:49;3.00;99.90
41668;DHT22;27356;50.920;5.350;2023-04-06T00:55:15;3.00;99.90
41668;DHT22;27356;50.920;5.350;2023-04-06T00:57:40;3.00;99.90
41668;DHT22;27356;50.920;5.350;2023-04-06T01:00:07;3.00;99.90
41668;DHT22;27356;50.920;5.350;2023-04-06T01:02:32;3.00;99.90
41668;DHT22;27356;50.920;5.350;2023-04-06T01:04:58;2.90;99.90
41668;DHT22;27356;50.920;5.350;2023-04-06T01:07:24;2.90;99.90
41668;DHT22;27356;50.920;5.350;2023-04-06T01:09:50;2.80;99.90
41668;DHT22;27356;50.920;5.350;2023-04-06T01:12:18;2.80;99.90
41668;DHT22;27356;50.920;5.350;2023-04-06T01:14:43;2.80;99.90
41668;DHT22;27356;50.920;5.350;2023-04-06T01:17:09;2.70;99.90
41668;DHT22;27356;50.920;5.350;2023-04-06T01:19:36;2.70;99.90
41668;DHT22;27356;50.920;5.350;2023-04-06T01:22:02;2.70;99.90
41668;DHT22;27356;50.920;5.350;2023-04-06T01:24:28;2.60;99.90
41668;DHT22;27356;50.920;5.350;2023-04-06T01:26:53;2.60;99.90
41668;DHT22;27356;50.920;5.350;2023-04-06T01:29:19;2.60;99.90
41668;DHT22;27356;50.920;5.350;2023-04-06T01:31:45;2.60;99.90
41668;DHT22;27356;50.920;5.350;2023-04-06T01:34:11;2.50;99.90
41668;DHT22;27356;50.920;5.350;2023-04-06T01:36:36;2.40;99.90
41668;DHT22;27356;50.920;5.350;2023-04-06T01:39:02;2.40;99.90
41668;DHT22;27356;50.920;5.350;2023-04-06T01:41:28;2.50;99.90
41668;DHT22;27356;50.920;5.350;2023-04-06T01:43:54;2.60;99.90
41668;DHT22;27356;50.920;5.350;2023-04-06T01:46:20;2.50;99.90
41668;DHT22;27356;50.920;5.350;2023-04-06T01:48:46;2.40;99.90
41668;DHT22;27356;50.920;5.350;2023-04-06T01:51:12;2.40;99.90
41668;DHT22;27356;50.920;5.350;2023-04-06T01:53:37;2.40;99.90
41668;DHT22;27356;50.920;5.350;2023-04-06T01:56:03;2.40;99.90
41668;DHT22;27356;50.920;5.350;2023-04-06T01:58:29;2.30;99.90
41668;DHT22;27356;50.920;5.350;2023-04-06T02:00:55;2.30;99.90
41668;DHT22;27356;50.920;5.350;2023-04-06T02:03:21;2.30;99.90
41668;DHT22;27356;50.920;5.350;2023-04-06T02:05:47;2.30;99.90
41668;DHT22;27356;50.920;5.350;2023-04-06T02:08:12;2.20;99.90
41668;DHT22;27356;50.920;5.350;2023-04-06T02:10:38;2.30;99.90
41668;DHT22;27356;50.920;5.350;2023-04-06T02:13:04;2.20;99.90
41668;DHT22;27356;50.920;5.350;2023-04-06T02:15:29;2.20;99.90
41668;DHT22;27356;50.920;5.350;2023-04-06T02:17:55;2.30;99.90
41668;DHT22;27356;50.920;5.350;2023-04-06T02:20:21;2.30;99.90
41668;DHT22;27356;50.920;5.350;2023-04-06T02:22:46;2.30;99.90
41668;DHT22;27356;50.920;5.350;2023-04-06T02:25:12;2.30;99.90
41668;DHT22;27356;50.920;5.350;2023-04-06T02:27:38;2.40;99.90
41668;DHT22;27356;50.920;5.350;2023-04-06T02:30:04;2.40;99.90
41668;DHT22;27356;50.920;5.350;2023-04-06T02:32:30;2.60;99.90
41668;DHT22;27356;50.920;5.350;2023-04-06T02:34:56;2.60;99.90
41668;DHT22;27356;50.920;5.350;2023-04-06T02:37:21;2.60;99.90
41668;DHT22;27356;50.920;5.350;2023-04-06T02:39:49;2.60;99.90
41668;DHT22;27356;50.920;5.350;2023-04-06T02:42:15;2.70;99.90
41668;DHT22;27356;50.920;5.350;2023-04-06T02:44:44;2.70;99.90
41668;DHT22;27356;50.920;5.350;2023-04-06T02:47:10;2.80;99.90
41668;DHT22;27356;50.920;5.350;2023-04-06T02:49:36;2.80;99.90
41668;DHT22;27356;50.920;5.350;2023-04-06T02:52:02;2.90;99.90
41668;DHT22;27356;50.920;5.350;2023-04-06T02:54:28;2.90;99.90
41668;DHT22;27356;50.920;5.350;2023-04-06T02:56:54;3.00;99.90
41668;DHT22;27356;50.920;5.350;2023-04-06T02:59:20;3.00;99.90
41668;DHT22;27356;50.920;5.350;2023-04-06T03:01:45;3.20;99.90
41668;DHT22;27356;50.920;5.350;2023-04-06T03:04:11;3.10;99.90
41668;DHT22;27356;50.920;5.350;2023-04-06T03:06:37;3.10;99.90
41668;DHT22;27356;50.920;5.350;2023-04-06T03:09:03;3.00;99.90
41668;DHT22;27356;50.920;5.350;2023-04-06T03:11:29;3.10;99.90
41668;DHT22;27356;50.920;5.350;2023-04-06T03:13:55;3.20;99.90
41668;DHT22;27356;50.920;5.350;2023-04-06T03:16:20;3.20;99.90
41668;DHT22;27356;50.920;5.350;2023-04-06T03:18:46;3.30;99.90
41668;DHT22;27356;50.920;5.350;2023-04-06T03:21:13;3.40;99.90
41668;DHT22;27356;50.920;5.350;2023-04-06T03:23:40;3.30;99.90
41668;DHT22;27356;50.920;5.350;2023-04-06T03:26:06;3.40;99.90
41668;DHT22;27356;50.920;5.350;2023-04-06T03:28:32;3.40;99.90
41668;DHT22;27356;50.920;5.350;2023-04-06T03:30:57;3.30;99.90
41668;DHT22;27356;50.920;5.350;2023-04-06T03:33:23;3.40;99.90
41668;DHT22;27356;50.920;5.350;2023-04-06T03:35:49;3.40;99.90
41668;DHT22;27356;50.920;5.350;2023-04-06T03:38:15;3.50;99.90
41668;DHT22;27356;50.920;5.350;2023-04-06T03:40:41;3.40;99.90
41668;DHT22;27356;50.920;5.350;2023-04-06T03:43:08;3.40;99.90
41668;DHT22;27356;50.920;5.350;2023-04-06T03:45:34;3.50;99.90
41668;DHT22;27356;50.920;5.350;2023-04-06T03:48:00;3.40;99.90
41668;DHT22;27356;50.920;5.350;2023-04-06T03:50:25;3.40;99.90
41668;DHT22;27356;50.920;5.350;2023-04-06T03:52:51;3.40;99.90
41668;DHT22;27356;50.920;5.350;2023-04-06T03:55:17;3.30;99.90
41668;DHT22;27356;50.920;5.350;2023-04-06T03:57:43;3.30;99.90
41668;DHT22;27356;50.920;5.350;2023-04-06T04:00:09;3.40;99.90
41668;DHT22;27356;50.920;5.350;2023-04-06T04:02:35;3.40;99.90
41668;DHT22;27356;50.920;5.350;2023-04-06T04:05:01;3.40;99.90
41668;DHT22;27356;50.920;5.350;2023-04-06T04:07:26;3.40;99.90
41668;DHT22;27356;50.920;5.350;2023-04-06T04:09:52;3.30;99.90
41668;DHT22;27356;50.920;5.350;2023-04-06T04:12:18;3.20;99.90
41668;DHT22;27356;50.920;5.350;2023-04-06T04:14:43;3.30;99.90
41668;DHT22;27356;50.920;5.350;2023-04-06T04:17:09;3.20;99.90
41668;DHT22;27356;50.920;5.350;2023-04-06T04:19:35;3.20;99.90
41668;DHT22;27356;50.920;5.350;2023-04-06T04:22:01;3.40;99.90
41668;DHT22;27356;50.920;5.350;2023-04-06T04:24:30;3.40;99.90
41668;DHT22;27356;50.920;5.350;2023-04-06T04:26:55;3.50;99.90
41668;DHT22;27356;50.920;5.350;2023-04-06T04:29:22;3.50;99.90
41668;DHT22;27356;50.920;5.350;2023-04-06T04:31:48;3.50;99.90
41668;DHT22;27356;50.920;5.350;2023-04-06T04:34:14;3.60;99.90
41668;DHT22;27356;50.920;5.350;2023-04-06T04:36:41;3.80;99.90
41668;DHT22;27356;50.920;5.350;2023-04-06T04:39:09;3.90;99.90
41668;DHT22;27356;50.920;5.350;2023-04-06T04:41:35;3.90;99.90
41668;DHT22;27356;50.920;5.350;2023-04-06T04:44:00;4.00;99.90
41668;DHT22;27356;50.920;5.350;2023-04-06T04:46:26;3.90;99.90
41668;DHT22;27356;50.920;5.350;2023-04-06T04:48:52;3.90;99.90
41668;DHT22;27356;50.920;5.350;2023-04-06T04:51:17;3.80;99.90
41668;DHT22;27356;50.920;5.350;2023-04-06T04:53:45;3.90;99.90
41668;DHT22;27356;50.920;5.350;2023-04-06T04:56:10;3.80;99.90
41668;DHT22;27356;50.920;5.350;2023-04-06T04:58:36;3.70;99.90
41668;DHT22;27356;50.920;5.350;2023-04-06T05:01:02;3.60;99.90
41668;DHT22;27356;50.920;5.350;2023-04-06T05:03:28;3.60;99.90
41668;DHT22;27356;50.920;5.350;2023-04-06T05:05:54;3.80;99.90
41668;DHT22;27356;50.920;5.350;2023-04-06T05:08:20;3.80;99.90
41668;DHT22;27356;50.920;5.350;2023-04-06T05:10:45;3.80;99.90
41668;DHT22;27356;50.920;5.350;2023-04-06T05:13:12;3.90;99.90
41668;DHT22;27356;50.920;5.350;2023-04-06T05:15:38;3.90;99.90
41668;DHT22;27356;50.920;5.350;2023-04-06T05:18:04;3.90;99.90
41668;DHT22;27356;50.920;5.350;2023-04-06T05:20:30;4.00;99.90
41668;DHT22;27356;50.920;5.350;2023-04-06T05:22:56;4.10;99.90
41668;DHT22;27356;50.920;5.350;2023-04-06T05:25:22;4.10;99.90
41668;DHT22;27356;50.920;5.350;2023-04-06T05:27:48;4.20;99.90
41668;DHT22;27356;50.920;5.350;2023-04-06T05:30:13;4.20;99.90
41668;DHT22;27356;50.920;5.350;2023-04-06T05:32:40;4.20;99.90
41668;DHT22;27356;50.920;5.350;2023-04-06T05:35:06;4.40;99.90
41668;DHT22;27356;50.920;5.350;2023-04-06T05:37:32;4.40;99.90
41668;DHT22;27356;50.920;5.350;2023-04-06T05:39:57;4.50;99.90
41668;DHT22;27356;50.920;5.350;2023-04-06T05:42:23;4.70;99.90
41668;DHT22;27356;50.920;5.350;2023-04-06T05:44:49;4.70;99.90
41668;DHT22;27356;50.920;5.350;2023-04-06T05:47:14;4.60;99.90
41668;DHT22;27356;50.920;5.350;2023-04-06T05:49:42;4.60;99.90
41668;DHT22;27356;50.920;5.350;2023-04-06T05:52:08;4.60;99.90
41668;DHT22;27356;50.920;5.350;2023-04-06T05:54:35;4.70;99.90
41668;DHT22;27356;50.920;5.350;2023-04-06T05:57:04;4.80;99.90
41668;DHT22;27356;50.920;5.350;2023-04-06T05:59:30;5.10;99.90
41668;DHT22;27356;50.920;5.350;2023-04-06T06:01:56;5.20;99.90
41668;DHT22;27356;50.920;5.350;2023-04-06T06:04:22;5.20;99.90
41668;DHT22;27356;50.920;5.350;2023-04-06T06:06:48;5.40;99.90
41668;DHT22;27356;50.920;5.350;2023-04-06T06:09:14;5.50;99.90
41668;DHT22;27356;50.920;5.350;2023-04-06T06:11:40;5.50;99.90
41668;DHT22;27356;50.920;5.350;2023-04-06T06:14:06;5.50;99.90
41668;DHT22;27356;50.920;5.350;2023-04-06T06:16:32;5.50;99.90
41668;DHT22;27356;50.920;5.350;2023-04-06T06:18:58;5.50;99.90
41668;DHT22;27356;50.920;5.350;2023-04-06T06:21:24;5.40;99.90
41668;DHT22;27356;50.920;5.350;2023-04-06T06:23:50;5.30;99.90
41668;DHT22;27356;50.920;5.350;2023-04-06T06:26:16;5.40;99.90
41668;DHT22;27356;50.920;5.350;2023-04-06T06:28:41;5.30;99.90
41668;DHT22;27356;50.920;5.350;2023-04-06T06:31:07;5.50;99.90
41668;DHT22;27356;50.920;5.350;2023-04-06T06:33:33;5.60;99.90
41668;DHT22;27356;50.920;5.350;2023-04-06T06:35:59;5.70;99.90
41668;DHT22;27356;50.920;5.350;2023-04-06T06:38:24;5.90;99.90
41668;DHT22;27356;50.920;5.350;2023-04-06T06:40:50;6.10;99.90
41668;DHT22;27356;50.920;5.350;2023-04-06T06:43:16;6.30;99.90
41668;DHT22;27356;50.920;5.350;2023-04-06T06:45:42;6.50;99.90
41668;DHT22;27356;50.920;5.350;2023-04-06T06:48:08;6.50;99.90
41668;DHT22;27356;50.920;5.350;2023-04-06T06:50:33;6.60;99.90
41668;DHT22;27356;50.920;5.350;2023-04-06T06:52:59;6.60;99.90
41668;DHT22;27356;50.920;5.350;2023-04-06T06:55:25;6.70;99.90
41668;DHT22;27356;50.920;5.350;2023-04-06T06:57:52;6.70;99.90
41668;DHT22;27356;50.920;5.350;2023-04-06T07:00:18;7.00;99.90
41668;DHT22;27356;50.920;5.350;2023-04-06T07:02:46;7.10;99.90
41668;DHT22;27356;50.920;5.350;2023-04-06T07:05:12;7.10;99.90
41668;DHT22;27356;50.920;5.350;2023-04-06T07:07:38;7.10;99.90
41668;DHT22;27356;50.920;5.350;2023-04-06T07:10:05;7.20;99.90
41668;DHT22;27356;50.920;5.350;2023-04-06T07:12:31;7.30;99.90
41668;DHT22;27356;50.920;5.350;2023-04-06T07:14:56;7.50;99.90
41668;DHT22;27356;50.920;5.350;2023-04-06T07:17:22;7.60;99.90
41668;DHT22;27356;50.920;5.350;2023-04-06T07:19:48;7.80;99.90
41668;DHT22;27356;50.920;5.350;2023-04-06T07:22:14;8.00;99.90
41668;DHT22;27356;50.920;5.350;2023-04-06T07:24:39;8.20;99.90
41668;DHT22;27356;50.920;5.350;2023-04-06T07:27:05;8.40;99.90
41668;DHT22;27356;50.920;5.350;2023-04-06T07:29:31;8.60;99.90
41668;DHT22;27356;50.920;5.350;2023-04-06T07:31:57;8.90;99.90
41668;DHT22;27356;50.920;5.350;2023-04-06T07:34:22;9.00;99.90
41668;DHT22;27356;50.920;5.350;2023-04-06T07:36:48;9.10;99.90
41668;DHT22;27356;50.920;5.350;2023-04-06T07:39:14;9.40;99.90
41668;DHT22;27356;50.920;5.350;2023-04-06T07:41:40;9.70;99.40
41668;DHT22;27356;50.920;5.350;2023-04-06T07:44:06;9.90;98.80
41668;DHT22;27356;50.920;5.350;2023-04-06T07:46:32;9.90;98.20
41668;DHT22;27356;50.920;5.350;2023-04-06T07:48:59;9.80;99.00
41668;DHT22;27356;50.920;5.350;2023-04-06T07:51:26;9.90;98.50
41668;DHT22;27356;50.920;5.350;2023-04-06T07:53:52;9.90;98.50
41668;DHT22;27356;50.920;5.350;2023-04-06T07:56:18;9.80;98.50
41668;DHT22;27356;50.920;5.350;2023-04-06T07:58:44;9.90;98.40
41668;DHT22;27356;50.920;5.350;2023-04-06T08:01:09;10.00;98.20
41668;DHT22;27356;50.920;5.350;2023-04-06T08:03:36;9.90;98.00
41668;DHT22;27356;50.920;5.350;2023-04-06T08:06:02;10.00;98.30
41668;DHT22;27356;50.920;5.350;2023-04-06T08:08:28;10.10;98.20
41668;DHT22;27356;50.920;5.350;2023-04-06T08:10:54;10.20;98.00
41668;DHT22;27356;50.920;5.350;2023-04-06T08:13:20;10.10;98.40
41668;DHT22;27356;50.920;5.350;2023-04-06T08:15:46;10.10;98.50
41668;DHT22;27356;50.920;5.350;2023-04-06T08:18:12;10.10;98.50
41668;DHT22;27356;50.920;5.350;2023-04-06T08:20:41;10.30;98.40
41668;DHT22;27356;50.920;5.350;2023-04-06T08:23:07;10.40;98.10
41668;DHT22;27356;50.920;5.350;2023-04-06T08:25:35;10.60;97.80
41668;DHT22;27356;50.920;5.350;2023-04-06T08:28:01;10.60;97.80
41668;DHT22;27356;50.920;5.350;2023-04-06T08:30:27;10.70;97.60
41668;DHT22;27356;50.920;5.350;2023-04-06T08:32:53;10.80;97.50
41668;DHT22;27356;50.920;5.350;2023-04-06T08:35:19;11.10;97.30
41668;DHT22;27356;50.920;5.350;2023-04-06T08:37:45;11.30;96.50
41668;DHT22;27356;50.920;5.350;2023-04-06T08:40:11;11.30;96.40
41668;DHT22;27356;50.920;5.350;2023-04-06T08:42:40;11.30;96.70
41668;DHT22;27356;50.920;5.350;2023-04-06T08:45:09;11.60;96.30
41668;DHT22;27356;50.920;5.350;2023-04-06T08:47:36;11.70;96.10
41668;DHT22;27356;50.920;5.350;2023-04-06T08:50:06;11.70;96.30
41668;DHT22;27356;50.920;5.350;2023-04-06T08:52:33;12.00;95.90
41668;DHT22;27356;50.920;5.350;2023-04-06T08:55:01;12.10;95.30
41668;DHT22;27356;50.920;5.350;2023-04-06T08:57:27;12.20;94.80
41668;DHT22;27356;50.920;5.350;2023-04-06T08:59:54;12.30;94.80
41668;DHT22;27356;50.920;5.350;2023-04-06T09:02:20;12.30;95.20
41668;DHT22;27356;50.920;5.350;2023-04-06T09:04:48;12.30;94.50
41668;DHT22;27356;50.920;5.350;2023-04-06T09:07:15;12.30;95.30
41668;DHT22;27356;50.920;5.350;2023-04-06T09:09:41;12.50;95.00
41668;DHT22;27356;50.920;5.350;2023-04-06T09:12:31;12.50;95.00
41668;DHT22;27356;50.920;5.350;2023-04-06T09:14:57;12.50;94.90
41668;DHT22;27356;50.920;5.350;2023-04-06T09:17:25;12.50;94.70
41668;DHT22;27356;50.920;5.350;2023-04-06T09:19:51;12.20;95.30
41668;DHT22;27356;50.920;5.350;2023-04-06T09:22:18;12.20;95.20
41668;DHT22;27356;50.920;5.350;2023-04-06T09:24:49;12.20;95.40
41668;DHT22;27356;50.920;5.350;2023-04-06T09:27:15;12.10;95.30
41668;DHT22;27356;50.920;5.350;2023-04-06T09:29:42;11.80;95.70
41668;DHT22;27356;50.920;5.350;2023-04-06T09:32:09;11.60;96.50
41668;DHT22;27356;50.920;5.350;2023-04-06T09:34:42;11.80;96.50
41668;DHT22;27356;50.920;5.350;2023-04-06T09:37:18;11.70;96.80
41668;DHT22;27356;50.920;5.350;2023-04-06T09:39:45;11.90;97.20
41668;DHT22;27356;50.920;5.350;2023-04-06T09:42:23;12.10;97.20
41668;DHT22;27356;50.920;5.350;2023-04-06T09:44:49;12.00;98.50
41668;DHT22;27356;50.920;5.350;2023-04-06T09:47:15;12.10;98.70
41668;DHT22;27356;50.920;5.350;2023-04-06T09:49:43;12.10;99.90
41668;DHT22;27356;50.920;5.350;2023-04-06T09:52:11;12.00;99.90
41668;DHT22;27356;50.920;5.350;2023-04-06T09:54:38;11.90;99.90
41668;DHT22;27356;50.920;5.350;2023-04-06T09:57:19;11.80;99.90
41668;DHT22;27356;50.920;5.350;2023-04-06T10:00:03;11.90;99.90
41668;DHT22;27356;50.920;5.350;2023-04-06T10:02:58;11.50;99.90
41668;DHT22;27356;50.920;5.350;2023-04-06T10:05:37;11.60;99.90
41668;DHT22;27356;50.920;5.350;2023-04-06T10:08:09;11.50;99.90
41668;DHT22;27356;50.920;5.350;2023-04-06T10:10:35;11.30;99.90
41668;DHT22;27356;50.920;5.350;2023-04-06T10:13:02;11.50;99.90
41668;DHT22;27356;50.920;5.350;2023-04-06T10:15:29;11.50;99.90
41668;DHT22;27356;50.920;5.350;2023-04-06T10:17:56;11.50;99.90
41668;DHT22;27356;50.920;5.350;2023-04-06T10:20:42;11.70;99.90
41668;DHT22;27356;50.920;5.350;2023-04-06T10:25:52;11.60;99.90
41668;DHT22;27356;50.920;5.350;2023-04-06T10:28:19;11.70;99.90
41668;DHT22;27356;50.920;5.350;2023-04-06T10:30:45;11.50;99.90
41668;DHT22;27356;50.920;5.350;2023-04-06T10:33:19;11.30;99.90
41668;DHT22;27356;50.920;5.350;2023-04-06T10:35:45;11.20;99.90
41668;DHT22;27356;50.920;5.350;2023-04-06T10:38:12;11.20;99.90
41668;DHT22;27356;50.920;5.350;2023-04-06T10:40:40;11.00;99.90
41668;DHT22;27356;50.920;5.350;2023-04-06T10:43:19;10.90;99.90
41668;DHT22;27356;50.920;5.350;2023-04-06T10:45:54;11.00;99.90
41668;DHT22;27356;50.920;5.350;2023-04-06T10:48:20;10.80;99.90
41668;DHT22;27356;50.920;5.350;2023-04-06T10:50:51;10.90;99.90
41668;DHT22;27356;50.920;5.350;2023-04-06T10:53:27;10.80;99.90
41668;DHT22;27356;50.920;5.350;2023-04-06T10:55:56;10.90;99.90
41668;DHT22;27356;50.920;5.350;2023-04-06T10:58:28;10.80;99.90
41668;DHT22;27356;50.920;5.350;2023-04-06T11:00:57;10.70;99.90
41668;DHT22;27356;50.920;5.350;2023-04-06T11:03:23;10.80;99.90
41668;DHT22;27356;50.920;5.350;2023-04-06T11:05:50;10.80;99.90
41668;DHT22;27356;50.920;5.350;2023-04-06T11:08:30;10.80;99.90
41668;DHT22;27356;50.920;5.350;2023-04-06T11:11:10;11.00;99.90
41668;DHT22;27356;50.920;5.350;2023-04-06T11:13:57;10.90;99.90
41668;DHT22;27356;50.920;5.350;2023-04-06T11:16:26;11.00;99.90
41668;DHT22;27356;50.920;5.350;2023-04-06T11:18:53;10.90;99.90
41668;DHT22;27356;50.920;5.350;2023-04-06T11:21:29;10.60;99.90
41668;DHT22;27356;50.920;5.350;2023-04-06T11:26:54;10.70;99.90
41668;DHT22;27356;50.920;5.350;2023-04-06T11:29:30;10.70;99.90
41668;DHT22;27356;50.920;5.350;2023-04-06T11:32:01;10.70;99.90
41668;DHT22;27356;50.920;5.350;2023-04-06T11:34:29;10.70;99.90
41668;DHT22;27356;50.920;5.350;2023-04-06T11:36:57;10.80;99.90
41668;DHT22;27356;50.920;5.350;2023-04-06T11:39:24;10.70;99.90
41668;DHT22;27356;50.920;5.350;2023-04-06T11:42:00;10.70;99.90
41668;DHT22;27356;50.920;5.350;2023-04-06T11:44:42;10.90;99.90
41668;DHT22;27356;50.920;5.350;2023-04-06T11:47:12;10.80;99.90
41668;DHT22;27356;50.920;5.350;2023-04-06T11:49:40;10.70;99.90
41668;DHT22;27356;50.920;5.350;2023-04-06T11:52:26;10.80;99.90
41668;DHT22;27356;50.920;5.350;2023-04-06T11:54:53;10.70;99.90
41668;DHT22;27356;50.920;5.350;2023-04-06T11:57:21;10.80;99.90
41668;DHT22;27356;50.920;5.350;2023-04-06T11:59:51;10.80;99.90
41668;DHT22;27356;50.920;5.350;2023-04-06T12:02:17;10.80;99.90
41668;DHT22;27356;50.920;5.350;2023-04-06T12:04:43;10.90;99.90
41668;DHT22;27356;50.920;5.350;2023-04-06T12:07:09;11.20;99.90
41668;DHT22;27356;50.920;5.350;2023-04-06T12:09:35;11.10;99.90
41668;DHT22;27356;50.920;5.350;2023-04-06T12:12:02;11.00;99.90
41668;DHT22;27356;50.920;5.350;2023-04-06T12:14:28;11.20;99.90
41668;DHT22;27356;50.920;5.350;2023-04-06T12:16:56;10.80;99.90
41668;DHT22;27356;50.920;5.350;2023-04-06T12:19:22;10.60;99.90
41668;DHT22;27356;50.920;5.350;2023-04-06T12:21:51;10.50;99.90
41668;DHT22;27356;50.920;5.350;2023-04-06T12:24:17;10.50;99.90
41668;DHT22;27356;50.920;5.350;2023-04-06T12:26:43;10.60;99.90
41668;DHT22;27356;50.920;5.350;2023-04-06T12:29:09;10.90;99.90
41668;DHT22;27356;50.920;5.350;2023-04-06T12:31:35;11.00;99.90
41668;DHT22;27356;50.920;5.350;2023-04-06T12:34:02;11.00;99.90
41668;DHT22;27356;50.920;5.350;2023-04-06T12:36:32;10.80;99.90
41668;DHT22;27356;50.920;5.350;2023-04-06T12:39:00;10.90;99.90
41668;DHT22;27356;50.920;5.350;2023-04-06T12:41:27;10.90;99.90
41668;DHT22;27356;50.920;5.350;2023-04-06T12:43:53;10.90;99.90
41668;DHT22;27356;50.920;5.350;2023-04-06T12:46:19;10.80;99.90
41668;DHT22;27356;50.920;5.350;2023-04-06T12:48:45;10.70;99.90
41668;DHT22;27356;50.920;5.350;2023-04-06T12:51:11;10.70;99.90
41668;DHT22;27356;50.920;5.350;2023-04-06T12:53:37;10.60;99.90
41668;DHT22;27356;50.920;5.350;2023-04-06T12:56:16;10.70;99.90
41668;DHT22;27356;50.920;5.350;2023-04-06T12:58:43;10.50;99.90
41668;DHT22;27356;50.920;5.350;2023-04-06T13:01:10;10.30;99.90
41668;DHT22;27356;50.920;5.350;2023-04-06T13:03:38;10.30;99.90
41668;DHT22;27356;50.920;5.350;2023-04-06T13:06:04;10.20;99.90
41668;DHT22;27356;50.920;5.350;2023-04-06T13:08:30;10.30;99.90
41668;DHT22;27356;50.920;5.350;2023-04-06T13:10:56;10.30;99.90
41668;DHT22;27356;50.920;5.350;2023-04-06T13:13:27;10.20;99.90
41668;DHT22;27356;50.920;5.350;2023-04-06T13:15:54;10.10;99.90
41668;DHT22;27356;50.920;5.350;2023-04-06T13:18:21;10.30;99.90
41668;DHT22;27356;50.920;5.350;2023-04-06T13:20:48;10.30;99.90
41668;DHT22;27356;50.920;5.350;2023-04-06T13:23:14;10.40;99.90
41668;DHT22;27356;50.920;5.350;2023-04-06T13:25:40;10.50;99.90
41668;DHT22;27356;50.920;5.350;2023-04-06T13:28:06;10.60;99.90
41668;DHT22;27356;50.920;5.350;2023-04-06T13:30:32;10.90;99.90
41668;DHT22;27356;50.920;5.350;2023-04-06T13:32:58;11.10;99.90
41668;DHT22;27356;50.920;5.350;2023-04-06T13:35:23;11.00;99.90
41668;DHT22;27356;50.920;5.350;2023-04-06T13:37:49;10.90;99.90
41668;DHT22;27356;50.920;5.350;2023-04-06T13:40:17;10.90;99.90
41668;DHT22;27356;50.920;5.350;2023-04-06T13:42:43;11.10;99.90
41668;DHT22;27356;50.920;5.350;2023-04-06T13:45:11;11.20;99.90
41668;DHT22;27356;50.920;5.350;2023-04-06T13:47:36;11.00;99.90
41668;DHT22;27356;50.920;5.350;2023-04-06T13:50:03;11.00;99.90
41668;DHT22;27356;50.920;5.350;2023-04-06T13:52:29;10.80;99.90
41668;DHT22;27356;50.920;5.350;2023-04-06T13:54:55;10.70;99.90
41668;DHT22;27356;50.920;5.350;2023-04-06T13:57:21;10.60;99.90
41668;DHT22;27356;50.920;5.350;2023-04-06T13:59:46;10.60;99.90
41668;DHT22;27356;50.920;5.350;2023-04-06T14:02:13;10.90;99.90
41668;DHT22;27356;50.920;5.350;2023-04-06T14:04:39;10.80;99.90
41668;DHT22;27356;50.920;5.350;2023-04-06T14:07:04;11.00;99.90
41668;DHT22;27356;50.920;5.350;2023-04-06T14:09:32;11.00;99.90
41668;DHT22;27356;50.920;5.350;2023-04-06T14:11:58;10.90;99.90
41668;DHT22;27356;50.920;5.350;2023-04-06T14:14:24;10.80;99.90
41668;DHT22;27356;50.920;5.350;2023-04-06T14:16:51;10.60;99.90
41668;DHT22;27356;50.920;5.350;2023-04-06T14:19:17;10.50;99.90
41668;DHT22;27356;50.920;5.350;2023-04-06T14:21:44;10.60;99.90
41668;DHT22;27356;50.920;5.350;2023-04-06T14:24:11;10.50;99.90
41668;DHT22;27356;50.920;5.350;2023-04-06T14:26:38;10.50;99.90
41668;DHT22;27356;50.920;5.350;2023-04-06T14:29:04;10.60;99.90
41668;DHT22;27356;50.920;5.350;2023-04-06T14:31:31;10.60;99.90
41668;DHT22;27356;50.920;5.350;2023-04-06T14:33:57;10.70;99.90
41668;DHT22;27356;50.920;5.350;2023-04-06T14:36:23;10.50;99.90
41668;DHT22;27356;50.920;5.350;2023-04-06T14:38:49;10.60;99.90
41668;DHT22;27356;50.920;5.350;2023-04-06T14:41:16;10.50;99.90
41668;DHT22;27356;50.920;5.350;2023-04-06T14:43:42;10.40;99.90
41668;DHT22;27356;50.920;5.350;2023-04-06T14:46:08;10.30;99.90
41668;DHT22;27356;50.920;5.350;2023-04-06T14:48:35;10.20;99.90
41668;DHT22;27356;50.920;5.350;2023-04-06T14:51:01;10.20;99.90
41668;DHT22;27356;50.920;5.350;2023-04-06T14:53:27;10.20;99.90
41668;DHT22;27356;50.920;5.350;2023-04-06T14:55:53;10.00;99.90
41668;DHT22;27356;50.920;5.350;2023-04-06T14:58:21;10.00;99.90
41668;DHT22;27356;50.920;5.350;2023-04-06T15:00:47;9.90;99.90
41668;DHT22;27356;50.920;5.350;2023-04-06T15:03:13;9.80;99.90
41668;DHT22;27356;50.920;5.350;2023-04-06T15:05:39;9.90;99.90
41668;DHT22;27356;50.920;5.350;2023-04-06T15:08:05;9.90;99.90
41668;DHT22;27356;50.920;5.350;2023-04-06T15:10:32;9.80;99.90
41668;DHT22;27356;50.920;5.350;2023-04-06T15:12:58;9.70;99.90
41668;DHT22;27356;50.920;5.350;2023-04-06T15:15:23;9.80;99.90
41668;DHT22;27356;50.920;5.350;2023-04-06T15:17:49;9.80;99.90
41668;DHT22;27356;50.920;5.350;2023-04-06T15:20:15;9.80;99.90
41668;DHT22;27356;50.920;5.350;2023-04-06T15:22:41;9.90;99.90
41668;DHT22;27356;50.920;5.350;2023-04-06T15:25:07;9.90;99.90
41668;DHT22;27356;50.920;5.350;2023-04-06T15:27:33;9.80;99.90
41668;DHT22;27356;50.920;5.350;2023-04-06T15:29:59;9.90;99.90
41668;DHT22;27356;50.920;5.350;2023-04-06T15:32:25;9.70;99.90
41668;DHT22;27356;50.920;5.350;2023-04-06T15:34:52;9.70;99.90
41668;DHT22;27356;50.920;5.350;2023-04-06T15:37:18;9.70;99.90
41668;DHT22;27356;50.920;5.350;2023-04-06T15:39:44;9.70;99.90
41668;DHT22;27356;50.920;5.350;2023-04-06T15:42:10;9.60;99.90
41668;DHT22;27356;50.920;5.350;2023-04-06T15:44:36;9.50;99.90